Time;durP1;ratioP1;P1;durP2;ratioP2;P2;SDS_P1;SDS_P2;PMS_P1;PMS_P2;Temp;Humidity;BMP_temperature;BMP_pressure;BME280_temperature;BME280_humidity;BME280_pressure;Samples;Min_cycle;Max_cycle;Signal;HPM_P1;HPM_P2
2023/09/01 00:02:24;;;;;;;0.10;0.10;;;;;;;14.90;100.00;100057.53;4980019;28;20042;-86
2023/09/01 00:05:06;;;;;;;0.63;0.17;;;;;;;14.85;100.00;100061.72;4968102;28;20567;-86
2023/09/01 00:07:31;;;;;;;0.00;0.00;;;;;;;14.73;100.00;100047.91;4972560;28;20427;-86
2023/09/01 00:09:57;;;;;;;0.10;0.10;;;;;;;14.64;100.00;100051.47;4970572;28;20038;-86
2023/09/01 00:12:23;;;;;;;0.22;0.22;;;;;;;14.45;100.00;100047.88;4954890;28;20468;-86
2023/09/01 00:14:49;;;;;;;0.10;0.10;;;;;;;14.34;100.00;100038.38;4985854;28;20065;-86
2023/09/01 00:17:14;;;;;;;0.40;0.40;;;;;;;14.28;100.00;100034.63;4969232;28;20061;-86
2023/09/01 00:19:40;;;;;;;0.00;0.00;;;;;;;14.22;100.00;100030.94;4948413;28;20505;-86
2023/09/01 00:22:06;;;;;;;0.30;0.30;;;;;;;14.27;100.00;100030.31;4954628;28;20049;-86
2023/09/01 00:24:32;;;;;;;0.20;0.20;;;;;;;14.27;100.00;100035.91;4972901;28;20042;-86
2023/09/01 00:26:58;;;;;;;0.00;0.00;;;;;;;14.33;100.00;100036.81;4947712;28;20043;-86
2023/09/01 00:29:24;;;;;;;0.30;0.30;;;;;;;14.31;100.00;100039.31;4982947;28;20042;-86
2023/09/01 00:31:50;;;;;;;0.20;0.20;;;;;;;14.36;100.00;100038.72;4965085;28;20497;-86
2023/09/01 00:34:16;;;;;;;0.10;0.10;;;;;;;14.29;100.00;100028.59;4948770;28;20050;-86
2023/09/01 00:36:42;;;;;;;0.13;0.13;;;;;;;14.36;100.00;100035.94;4968246;28;20038;-86
2023/09/01 00:39:08;;;;;;;2.47;0.82;;;;;;;14.40;100.00;100040.13;4953738;28;20051;-86
2023/09/01 00:41:34;;;;;;;0.32;0.30;;;;;;;14.38;100.00;100034.25;4970063;28;20073;-86
2023/09/01 00:44:00;;;;;;;0.00;0.00;;;;;;;14.44;100.00;100040.75;4954848;28;20755;-86
2023/09/01 00:46:26;;;;;;;0.13;0.13;;;;;;;14.42;100.00;100028.50;4963607;28;20499;-87
2023/09/01 00:48:51;;;;;;;0.28;0.28;;;;;;;14.39;100.00;100032.22;4984442;28;20066;-86
2023/09/01 00:51:17;;;;;;;0.25;0.25;;;;;;;14.40;100.00;100030.97;4968231;28;20093;-86
2023/09/01 00:53:42;;;;;;;0.20;0.20;;;;;;;14.40;100.00;100030.97;4971959;28;20501;-87
2023/09/01 00:56:09;;;;;;;0.38;0.15;;;;;;;14.48;100.00;100037.06;4969719;28;20526;-86
2023/09/01 00:58:34;;;;;;;0.98;0.95;;;;;;;14.50;100.00;100035.34;4967301;28;20034;-87
2023/09/01 01:01:00;;;;;;;0.43;0.15;;;;;;;14.53;100.00;100039.97;4983851;28;20525;-86
2023/09/01 01:03:26;;;;;;;0.30;0.30;;;;;;;14.51;100.00;100042.47;4968784;28;20062;-86
2023/09/01 01:06:43;;;;;;;0.30;0.30;;;;;;;14.53;100.00;100045.56;4953377;28;20052;-87
2023/09/01 01:09:47;;;;;;;0.57;0.47;;;;;;;14.57;100.00;100051.78;4944486;28;20050;-86
2023/09/01 01:12:12;;;;;;;0.35;0.32;;;;;;;14.56;100.00;100058.59;4985640;28;20057;-86
2023/09/01 01:14:46;;;;;;;0.63;0.52;;;;;;;14.59;100.00;100065.28;4984284;28;20038;-86
2023/09/01 01:17:13;;;;;;;0.10;0.10;;;;;;;14.54;100.00;100063.88;4952601;28;20428;-86
2023/09/01 01:19:50;;;;;;;0.45;0.45;;;;;;;14.54;100.00;100063.09;4965834;28;20050;-86
2023/09/01 01:22:35;;;;;;;1.65;0.50;;;;;;;14.45;100.00;100058.28;4955097;28;20125;-87
2023/09/01 01:25:13;;;;;;;0.45;0.45;;;;;;;14.52;100.00;100071.91;4967642;28;20034;-86
2023/09/01 01:27:42;;;;;;;0.10;0.10;;;;;;;14.55;100.00;100070.22;4973026;28;20414;-86
2023/09/01 01:30:09;;;;;;;0.30;0.30;;;;;;;14.55;100.00;100073.03;4969023;28;20418;-86
2023/09/01 01:32:35;;;;;;;0.10;0.10;;;;;;;14.53;100.00;100065.09;4952925;28;20418;-86
2023/09/01 01:35:32;;;;;;;0.77;0.65;;;;;;;14.53;100.00;100065.09;4967202;28;20502;-86
2023/09/01 01:38:03;;;;;;;0.40;0.40;;;;;;;14.48;100.00;100065.72;4954023;28;20101;-85
2023/09/01 01:40:29;;;;;;;0.13;0.13;;;;;;;14.47;100.00;100058.59;4979011;28;20056;-85
2023/09/01 01:42:56;;;;;;;0.55;0.55;;;;;;;14.43;100.00;100063.56;4951330;28;20117;-86
2023/09/01 01:45:22;;;;;;;0.65;0.65;;;;;;;14.39;100.00;100058.13;4962212;28;20039;-85
2023/09/01 01:47:49;;;;;;;0.20;0.20;;;;;;;14.40;100.00;100070.03;4953262;28;20458;-85
2023/09/01 01:50:14;;;;;;;0.93;0.43;;;;;;;14.32;100.00;100058.38;4965933;28;20054;-87
2023/09/01 01:52:40;;;;;;;0.03;0.03;;;;;;;14.23;100.00;100063.16;4968828;28;20045;-86
2023/09/01 01:55:07;;;;;;;0.00;0.00;;;;;;;14.14;100.00;100063.13;4969545;28;20045;-86
2023/09/01 01:57:33;;;;;;;0.15;0.15;;;;;;;14.01;100.00;100064.03;4952568;28;20034;-86
2023/09/01 01:59:59;;;;;;;0.77;0.57;;;;;;;14.07;100.00;100077.38;4951814;28;20046;-86
2023/09/01 02:02:24;;;;;;;3.28;1.50;;;;;;;13.99;100.00;100068.53;4950379;28;20483;-86
2023/09/01 02:04:50;;;;;;;0.22;0.22;;;;;;;13.93;100.00;100071.13;4952026;28;20082;-86
2023/09/01 02:07:16;;;;;;;0.10;0.10;;;;;;;13.90;100.00;100074.84;4969622;28;20038;-87
2023/09/01 02:09:42;;;;;;;0.40;0.40;;;;;;;13.92;100.00;100082.72;4970707;28;20097;-85
2023/09/01 02:12:08;;;;;;;0.55;0.50;;;;;;;13.84;100.00;100079.44;4953740;28;20561;-86
2023/09/01 02:14:34;;;;;;;0.20;0.20;;;;;;;13.89;100.00;100078.84;4987039;28;20046;-86
2023/09/01 02:17:00;;;;;;;0.57;0.30;;;;;;;13.96;100.00;100094.53;4971573;28;20053;-85
2023/09/01 02:19:29;;;;;;;0.10;0.10;;;;;;;13.95;100.00;100082.59;4974652;28;20042;-86
2023/09/01 02:21:55;;;;;;;0.00;0.00;;;;;;;13.95;100.00;100104.16;4958650;28;20093;-86
2023/09/01 02:24:20;;;;;;;0.17;0.17;;;;;;;13.89;100.00;100100.38;4991501;28;20160;-86
2023/09/01 02:26:46;;;;;;;0.40;0.40;;;;;;;13.81;100.00;100091.53;4973635;28;20045;-86
2023/09/01 02:29:11;;;;;;;0.10;0.10;;;;;;;13.77;100.00;100104.81;4987883;28;20049;-86
2023/09/01 02:31:37;;;;;;;0.10;0.10;;;;;;;13.81;100.00;100097.09;4958908;28;20053;-86
2023/09/01 02:34:05;;;;;;;0.65;0.47;;;;;;;13.78;100.00;100103.59;4991226;28;20708;-86
2023/09/01 02:36:34;;;;;;;0.60;0.22;;;;;;;13.77;100.00;100107.63;4955963;28;20082;-86
2023/09/01 02:39:01;;;;;;;0.10;0.10;;;;;;;13.75;100.00;100109.31;4966668;28;20038;-85
2023/09/01 02:41:28;;;;;;;0.82;0.55;;;;;;;13.73;100.00;100100.63;4960821;28;20038;-86
2023/09/01 02:43:53;;;;;;;0.30;0.30;;;;;;;13.76;100.00;100108.84;4972279;28;20061;-85
2023/09/01 02:46:22;;;;;;;0.38;0.38;;;;;;;13.77;100.00;100101.25;4971816;28;20042;-86
2023/09/01 02:48:48;;;;;;;0.30;0.22;;;;;;;13.80;100.00;100109.47;4959078;28;20141;-86
2023/09/01 02:51:14;;;;;;;0.22;0.20;;;;;;;13.77;100.00;100101.25;4966986;28;20446;-86
2023/09/01 02:53:40;;;;;;;0.45;0.45;;;;;;;13.75;100.00;100107.28;4970139;28;20042;-86
2023/09/01 02:56:05;;;;;;;0.40;0.40;;;;;;;13.71;100.00;100103.09;4958307;28;20050;-86
2023/09/01 02:58:31;;;;;;;0.28;0.28;;;;;;;13.72;100.00;100099.84;4962368;28;20070;-86
2023/09/01 03:00:57;;;;;;;0.10;0.10;;;;;;;13.69;100.00;100097.97;4958358;28;20042;-86
2023/09/01 03:03:24;;;;;;;0.43;0.28;;;;;;;13.74;100.00;100105.75;4950539;28;20296;-85
2023/09/01 03:05:50;;;;;;;0.85;0.85;;;;;;;13.74;100.00;100100.16;4974338;28;20049;-86
2023/09/01 03:08:20;;;;;;;0.10;0.10;;;;;;;13.77;100.00;100095.69;4974702;28;20062;-86
2023/09/01 03:10:47;;;;;;;0.10;0.10;;;;;;;13.77;100.00;100096.47;4975469;28;20046;-86
2023/09/01 03:13:12;;;;;;;0.52;0.52;;;;;;;13.72;100.00;100071.19;4975090;28;20042;-86
2023/09/01 03:15:40;;;;;;;0.20;0.20;;;;;;;13.77;100.00;100068.59;4974201;28;20573;-86
2023/09/01 03:18:06;;;;;;;0.20;0.20;;;;;;;13.80;100.00;100078.81;4972049;28;20049;-86
2023/09/01 03:20:32;;;;;;;0.22;0.22;;;;;;;13.89;100.00;100075.28;4973777;28;20034;-85
2023/09/01 03:22:57;;;;;;;0.95;0.88;;;;;;;13.87;100.00;100064.59;4973229;28;20767;-86
2023/09/01 03:25:24;;;;;;;0.43;0.40;;;;;;;13.99;100.00;100074.84;4989695;28;20042;-85
2023/09/01 03:27:49;;;;;;;0.10;0.10;;;;;;;14.06;100.00;100070.25;4986571;28;20065;-85
2023/09/01 03:30:16;;;;;;;0.35;0.35;;;;;;;14.12;100.00;100068.38;4958363;28;20402;-86
2023/09/01 03:32:44;;;;;;;0.40;0.40;;;;;;;14.15;100.00;100070.28;4976371;28;20042;-86
2023/09/01 03:35:09;;;;;;;0.43;0.43;;;;;;;14.18;100.00;100069.34;4988375;28;20588;-86
2023/09/01 03:37:35;;;;;;;0.25;0.25;;;;;;;14.28;100.00;100066.13;4952536;28;20097;-86
2023/09/01 03:40:01;;;;;;;0.47;0.47;;;;;;;14.25;100.00;100052.31;4957865;28;20038;-86
2023/09/01 03:42:27;;;;;;;0.30;0.30;;;;;;;14.29;100.00;100062.09;4948472;28;20089;-86
2023/09/01 03:44:52;;;;;;;0.57;0.57;;;;;;;14.25;100.00;100057.88;4973627;28;20034;-86
2023/09/01 03:47:18;;;;;;;0.00;0.00;;;;;;;14.36;100.00;100075.78;4969592;28;20451;-86
2023/09/01 03:49:44;;;;;;;0.10;0.10;;;;;;;14.38;100.00;100078.09;4972695;28;20053;-86
2023/09/01 03:52:10;;;;;;;0.45;0.45;;;;;;;14.40;100.00;100075.63;4969731;28;20513;-86
2023/09/01 03:54:36;;;;;;;0.80;0.80;;;;;;;14.43;100.00;100083.09;4973235;28;20069;-86
2023/09/01 03:57:01;;;;;;;0.43;0.43;;;;;;;14.43;100.00;100074.72;4955809;28;20447;-86
2023/09/01 03:59:27;;;;;;;0.30;0.30;;;;;;;14.48;100.00;100076.13;4972218;28;20026;-87
2023/09/01 04:01:52;;;;;;;0.88;0.63;;;;;;;14.46;100.00;100079.38;4971360;28;20089;-86
2023/09/01 04:04:18;;;;;;;0.38;0.35;;;;;;;14.50;100.00;100085.56;4973030;28;20102;-86
2023/09/01 04:06:44;;;;;;;0.35;0.30;;;;;;;14.48;100.00;100081.72;4975919;28;20120;-86
2023/09/01 04:09:10;;;;;;;0.75;0.75;;;;;;;14.53;100.00;100093.00;4962216;28;20620;-86
2023/09/01 04:11:36;;;;;;;0.52;0.47;;;;;;;14.48;100.00;100090.06;4972057;28;20065;-86
2023/09/01 04:14:03;;;;;;;0.60;0.30;;;;;;;14.43;100.00;100085.88;4960260;28;20205;-86
2023/09/01 04:16:29;;;;;;;0.15;0.15;;;;;;;14.44;100.00;100093.00;4958443;28;20045;-86
2023/09/01 04:18:55;;;;;;;0.35;0.35;;;;;;;14.42;100.00;100089.91;4973778;28;20054;-86
2023/09/01 04:21:22;;;;;;;0.47;0.38;;;;;;;14.40;100.00;100095.94;4957535;28;20042;-87
2023/09/01 04:23:48;;;;;;;0.80;0.80;;;;;;;14.32;100.00;100080.69;4975101;28;20037;-86
2023/09/01 04:26:14;;;;;;;0.52;0.52;;;;;;;14.40;100.00;100106.31;4975297;28;20038;-87
2023/09/01 04:28:40;;;;;;;0.70;0.70;;;;;;;14.39;100.00;100096.41;4977055;28;20038;-86
2023/09/01 04:31:20;;;;;;;0.60;0.60;;;;;;;14.37;100.00;100101.66;4972164;28;20525;-87
2023/09/01 04:33:46;;;;;;;7.53;0.98;;;;;;;14.39;100.00;100096.41;4963713;28;20034;-86
2023/09/01 04:36:12;;;;;;;0.28;0.22;;;;;;;14.39;100.00;100096.41;4967389;28;20143;-86
2023/09/01 04:38:37;;;;;;;0.50;0.50;;;;;;;14.29;100.00;100092.00;4968894;28;20074;-86
2023/09/01 04:41:04;;;;;;;0.45;0.45;;;;;;;14.30;100.00;100094.34;4982789;28;20100;-87
2023/09/01 04:43:34;;;;;;;0.68;0.68;;;;;;;14.31;100.00;100092.34;4971384;28;20509;-87
2023/09/01 04:46:00;;;;;;;0.77;0.35;;;;;;;14.34;100.00;100085.81;4972544;28;20049;-86
2023/09/01 04:48:27;;;;;;;1.65;1.35;;;;;;;14.37;100.00;100093.28;4971088;28;20042;-86
2023/09/01 04:50:53;;;;;;;1.27;1.17;;;;;;;14.40;100.00;100098.72;4978789;28;20041;-86
2023/09/01 04:53:21;;;;;;;1.27;0.50;;;;;;;14.41;100.00;100089.13;4969159;28;20125;-86
2023/09/01 04:55:50;;;;;;;1.60;1.23;;;;;;;14.45;100.00;100092.53;4966088;28;20499;-86
2023/09/01 04:58:16;;;;;;;0.32;0.22;;;;;;;14.53;100.00;100084.63;4960501;28;20124;-86
2023/09/01 05:00:41;;;;;;;0.03;0.03;;;;;;;14.61;100.00;100085.91;4969598;28;20037;-86
2023/09/01 05:03:10;;;;;;;0.47;0.47;;;;;;;14.62;100.00;100072.72;4961172;28;20054;-86
2023/09/01 05:05:35;;;;;;;0.40;0.40;;;;;;;14.65;100.00;100075.34;4967090;28;20057;-85
2023/09/01 05:08:01;;;;;;;7.88;1.17;;;;;;;14.67;100.00;100081.25;4980275;28;20046;-86
2023/09/01 05:10:27;;;;;;;0.17;0.17;;;;;;;14.73;100.00;100093.34;4967378;28;20046;-86
2023/09/01 05:12:53;;;;;;;0.80;0.47;;;;;;;14.77;100.00;100091.19;4954699;28;20067;-86
2023/09/01 05:15:19;;;;;;;0.20;0.20;;;;;;;14.82;100.00;100096.16;4981857;28;20533;-88
2023/09/01 05:17:46;;;;;;;1.13;1.05;;;;;;;14.83;100.00;100099.72;4969235;28;20038;-87
2023/09/01 05:20:11;;;;;;;0.95;0.82;;;;;;;14.96;100.00;100097.56;4969232;28;20208;-87
2023/09/01 05:22:37;;;;;;;0.10;0.10;;;;;;;14.98;100.00;100102.69;4955773;28;20552;-87
2023/09/01 05:25:03;;;;;;;2.00;1.55;;;;;;;15.06;100.00;100115.88;4971336;28;20076;-87
2023/09/01 05:27:29;;;;;;;2.40;1.15;;;;;;;15.13;100.00;100125.94;4971410;28;20052;-87
2023/09/01 05:29:55;;;;;;;1.25;0.80;;;;;;;15.18;100.00;100128.13;4955950;28;20038;-88
2023/09/01 05:32:21;;;;;;;0.80;0.80;;;;;;;15.25;100.00;100128.59;4953236;28;20034;-88
2023/09/01 05:34:47;;;;;;;0.52;0.38;;;;;;;15.30;100.00;100132.78;4954713;28;20045;-88
2023/09/01 05:37:12;;;;;;;0.20;0.20;;;;;;;15.31;100.00;100131.53;4952991;28;20406;-88
2023/09/01 05:39:39;;;;;;;1.30;0.80;;;;;;;15.31;100.00;100137.13;4969442;28;20131;-88
2023/09/01 05:42:09;;;;;;;0.68;0.68;;;;;;;15.32;100.00;100144.28;4952054;28;20042;-87
2023/09/01 05:44:35;;;;;;;0.52;0.52;;;;;;;15.40;100.00;100151.09;4979724;28;20087;-87
2023/09/01 05:47:04;;;;;;;1.67;0.82;;;;;;;15.48;100.00;100135.56;4969800;28;20045;-86
2023/09/01 05:49:31;;;;;;;0.43;0.43;;;;;;;15.67;100.00;100147.50;4959832;28;20417;-86
2023/09/01 05:51:57;;;;;;;1.40;1.00;;;;;;;15.76;100.00;100133.50;4962008;28;20053;-86
2023/09/01 05:54:22;;;;;;;0.80;0.73;;;;;;;15.99;100.00;100138.41;4978613;28;20034;-86
2023/09/01 05:56:48;;;;;;;0.05;0.05;;;;;;;16.13;100.00;100136.97;4979421;28;20034;-86
2023/09/01 05:59:13;;;;;;;0.95;0.77;;;;;;;16.30;100.00;100152.09;4978954;28;20528;-86
2023/09/01 06:10:27;;;;;;;0.20;0.20;;;;;;;16.67;100.00;100147.13;1440296;26;20468;-87
2023/09/01 06:12:53;;;;;;;0.45;0.45;;;;;;;16.84;100.00;100153.09;5009707;28;20038;-87
2023/09/01 06:15:19;;;;;;;0.90;0.65;;;;;;;16.92;100.00;100151.47;4980595;28;20778;-88
2023/09/01 06:17:44;;;;;;;0.52;0.52;;;;;;;16.93;100.00;100145.41;4975981;28;20050;-87
2023/09/01 06:20:10;;;;;;;0.40;0.40;;;;;;;16.89;100.00;100149.63;4981603;28;20358;-88
2023/09/01 06:22:36;;;;;;;0.75;0.75;;;;;;;16.94;100.00;100146.97;4980840;28;20050;-88
2023/09/01 06:25:03;;;;;;;0.30;0.30;;;;;;;17.06;100.00;100145.16;5014431;28;20021;-88
2023/09/01 06:27:29;;;;;;;2.95;1.83;;;;;;;17.30;100.00;100140.28;4982132;28;20088;-88
2023/09/01 06:29:56;;;;;;;2.30;0.60;;;;;;;17.50;100.00;100143.22;4998029;28;20041;-88
2023/09/01 06:32:23;;;;;;;0.57;0.55;;;;;;;17.75;100.00;100146.75;4998040;28;20049;-88
2023/09/01 06:34:49;;;;;;;0.60;0.60;;;;;;;18.03;100.00;100150.78;4982288;28;20048;-87
2023/09/01 06:37:14;;;;;;;0.20;0.20;;;;;;;18.31;100.00;100143.59;4993786;28;20045;-87
2023/09/01 06:39:40;;;;;;;0.20;0.20;;;;;;;18.59;100.00;100158.06;4998117;28;20161;-88
2023/09/01 06:42:07;;;;;;;0.10;0.10;;;;;;;18.77;100.00;100140.16;4980496;28;20053;-88
2023/09/01 06:44:33;;;;;;;0.50;0.50;;;;;;;18.86;100.00;100149.22;4995190;28;20050;-88
2023/09/01 06:46:58;;;;;;;1.15;0.80;;;;;;;18.92;100.00;100147.28;4977690;28;20115;-88
2023/09/01 06:49:24;;;;;;;0.57;0.55;;;;;;;19.09;100.00;100147.47;5014278;28;20047;-88
2023/09/01 06:51:49;;;;;;;0.32;0.32;;;;;;;19.29;100.00;100150.25;4982226;28;20045;-88
2023/09/01 06:54:15;;;;;;;0.10;0.10;;;;;;;19.53;100.00;100150.81;4984182;28;20476;-88
2023/09/01 06:56:41;;;;;;;0.70;0.55;;;;;;;19.67;100.00;100146.34;5010078;28;20055;-88
2023/09/01 06:59:06;;;;;;;1.23;1.10;;;;;;;19.70;100.00;100153.00;4994354;28;20038;-88
2023/09/01 07:01:32;;;;;;;3.67;2.05;;;;;;;19.68;100.00;100144.31;5017241;28;20037;-88
2023/09/01 07:03:57;;;;;;;0.40;0.35;;;;;;;19.65;100.00;100139.69;5012086;28;20044;-88
2023/09/01 07:06:23;;;;;;;0.73;0.47;;;;;;;19.79;100.00;100141.59;5017327;28;20045;-88
2023/09/01 07:08:48;;;;;;;0.63;0.57;;;;;;;20.01;100.00;100138.97;5003538;28;20040;-88
2023/09/01 07:11:14;;;;;;;0.28;0.28;;;;;;;20.25;100.00;100142.25;5014594;28;20048;-88
2023/09/01 07:13:40;;;;;;;0.75;0.65;;;;;;;20.60;100.00;100144.00;5033879;28;20401;-88
2023/09/01 07:16:06;;;;;;;0.25;0.25;;;;;;;20.71;100.00;100142.03;5016447;28;20037;-88
2023/09/01 07:18:33;;;;;;;0.45;0.45;;;;;;;20.98;100.00;100156.78;5019926;28;20048;-88
2023/09/01 07:20:59;;;;;;;0.13;0.13;;;;;;;21.19;100.00;100158.94;4997742;28;20513;-88
2023/09/01 07:23:26;;;;;;;0.45;0.45;;;;;;;21.35;100.00;100152.56;5013719;28;20055;-88
2023/09/01 07:25:55;;;;;;;0.38;0.38;;;;;;;21.35;100.00;100161.03;5027297;28;20106;-88
2023/09/01 07:28:21;;;;;;;0.57;0.57;;;;;;;21.36;100.00;100154.13;4999768;28;20033;-89
2023/09/01 07:30:46;;;;;;;1.30;0.70;;;;;;;21.50;100.00;100160.84;4997311;28;20037;-89
2023/09/01 07:33:12;;;;;;;0.68;0.63;;;;;;;21.42;100.00;100156.19;5016313;28;20053;-89
2023/09/01 07:35:38;;;;;;;0.75;0.75;;;;;;;21.58;100.00;100155.47;5017304;28;20061;-89
2023/09/01 07:38:06;;;;;;;1.48;0.73;;;;;;;21.99;100.00;100148.09;5016834;28;20131;-88
2023/09/01 07:40:34;;;;;;;0.32;0.30;;;;;;;22.15;100.00;100155.03;5001150;28;20032;-89
2023/09/01 07:43:00;;;;;;;0.22;0.20;;;;;;;21.96;100.00;100149.09;4999609;28;20049;-89
2023/09/01 07:45:28;;;;;;;0.50;0.50;;;;;;;21.93;100.00;100152.19;5003192;28;20517;-88
2023/09/01 07:47:54;;;;;;;0.80;0.70;;;;;;;22.33;100.00;100160.91;5013087;28;20405;-89
2023/09/01 07:50:23;;;;;;;1.05;0.95;;;;;;;22.45;100.00;100150.34;5026161;28;20025;-89
2023/09/01 07:52:52;;;;;;;0.20;0.20;;;;;;;22.56;100.00;100155.25;5017367;28;20033;-89
2023/09/01 07:55:17;;;;;;;4.95;1.17;;;;;;;22.54;100.00;100146.50;5000052;28;20515;-89
2023/09/01 07:57:43;;;;;;;0.40;0.40;;;;;;;22.46;100.00;100165.25;5015818;28;20068;-89
2023/09/01 08:00:09;;;;;;;0.20;0.20;;;;;;;22.07;100.00;100166.06;4999193;28;20031;-89
2023/09/01 08:02:41;;;;;;;0.37;0.37;;;;;;;22.01;100.00;100168.13;5018439;28;20042;-89
2023/09/01 08:05:07;;;;;;;2.47;0.73;;;;;;;22.26;100.00;100161.44;5032536;28;20381;-88
2023/09/01 08:07:33;;;;;;;0.30;0.30;;;;;;;22.37;100.00;100171.19;5016480;28;20126;-88
2023/09/01 08:09:58;;;;;;;0.10;0.10;;;;;;;22.36;100.00;100164.00;5014550;28;20065;-89
2023/09/01 08:12:28;;;;;;;1.23;1.13;;;;;;;22.47;100.00;100176.06;4989061;28;20044;-89
2023/09/01 08:14:54;;;;;;;1.88;1.15;;;;;;;22.91;100.00;100169.56;5015610;28;20053;-89
2023/09/01 08:17:20;;;;;;;0.10;0.10;;;;;;;23.34;100.00;100166.28;5016116;28;20472;-89
2023/09/01 08:19:49;;;;;;;0.35;0.35;;;;;;;23.50;100.00;100168.28;5032154;28;20032;-89
2023/09/01 08:22:15;;;;;;;0.45;0.40;;;;;;;23.79;100.00;100170.44;4999861;28;20048;-89
2023/09/01 08:24:40;;;;;;;0.32;0.32;;;;;;;23.64;94.71;100167.97;4999553;28;20068;-90
2023/09/01 08:27:06;;;;;;;0.80;0.57;;;;;;;23.44;99.33;100157.00;5015427;28;20069;-89
2023/09/01 08:29:31;;;;;;;0.35;0.35;;;;;;;23.68;95.82;100164.84;5015649;28;20048;-89
2023/09/01 08:31:57;;;;;;;0.40;0.40;;;;;;;23.88;92.58;100172.94;5026474;28;20037;-90
2023/09/01 08:34:23;;;;;;;5.38;0.88;;;;;;;24.39;94.45;100173.31;5031918;28;20049;-89
2023/09/01 08:36:49;;;;;;;3.90;1.17;;;;;;;24.37;86.73;100158.91;5016042;28;20033;-89
2023/09/01 08:39:15;;;;;;;0.35;0.35;;;;;;;24.46;86.61;100155.75;5015723;28;20548;-90
2023/09/01 08:41:41;;;;;;;0.22;0.22;;;;;;;24.51;86.24;100163.41;5002416;28;20494;-90
2023/09/01 08:44:07;;;;;;;0.77;0.77;;;;;;;24.18;89.84;100163.72;5028633;28;20040;-89
2023/09/01 08:46:34;;;;;;;0.93;0.45;;;;;;;23.97;89.85;100166.97;4998770;28;20052;-90
2023/09/01 08:48:59;;;;;;;0.20;0.20;;;;;;;24.04;86.87;100163.53;5015147;28;20040;-89
2023/09/01 08:51:25;;;;;;;0.43;0.40;;;;;;;24.17;89.96;100167.84;4996286;28;20405;-90
2023/09/01 08:53:51;;;;;;;0.45;0.45;;;;;;;24.47;88.83;100169.38;5009351;28;20049;-90
2023/09/01 08:56:17;;;;;;;0.43;0.40;;;;;;;24.89;88.18;100167.94;5022037;28;20055;-90
2023/09/01 08:58:44;;;;;;;0.70;0.47;;;;;;;25.23;83.58;100153.34;5031506;28;20036;-91
2023/09/01 09:01:10;;;;;;;0.20;0.20;;;;;;;25.49;74.99;100148.56;5031499;28;20223;-90
2023/09/01 09:03:35;;;;;;;0.30;0.30;;;;;;;25.58;73.47;100161.66;5014997;28;20064;-91
2023/09/01 09:06:03;;;;;;;0.32;0.30;;;;;;;25.46;72.37;100155.34;4995698;28;20029;-91
2023/09/01 09:08:29;;;;;;;0.55;0.55;;;;;;;25.88;73.20;100158.63;4995997;28;20523;-91
2023/09/01 09:10:55;;;;;;;0.75;0.75;;;;;;;25.88;70.66;100144.41;5014852;28;20107;-91
2023/09/01 09:13:25;;;;;;;0.22;0.22;;;;;;;25.99;71.46;100147.06;4998338;28;20049;-91
2023/09/01 09:16:10;;;;;;;0.50;0.50;;;;;;;26.04;66.25;100157.59;5031357;28;20055;-90
2023/09/01 09:18:38;;;;;;;0.55;0.52;;;;;;;26.08;65.74;100157.28;5002969;28;20049;-90
2023/09/01 09:21:04;;;;;;;0.25;0.25;;;;;;;26.23;69.48;100151.88;4996338;28;20076;-91
2023/09/01 09:23:41;;;;;;;0.30;0.30;;;;;;;25.76;70.31;100166.53;4998840;28;20072;-90
2023/09/01 09:26:07;;;;;;;0.30;0.30;;;;;;;25.36;72.63;100156.25;5014500;28;20070;-90
2023/09/01 09:28:32;;;;;;;0.30;0.30;;;;;;;25.63;76.30;100149.44;5014350;28;20123;-91
2023/09/01 09:31:00;;;;;;;0.55;0.40;;;;;;;25.86;71.14;100159.16;5013101;28;20045;-90
2023/09/01 09:33:33;;;;;;;0.73;0.73;;;;;;;25.64;73.65;100145.28;5014843;28;20527;-90
2023/09/01 09:36:03;;;;;;;0.10;0.10;;;;;;;25.78;68.85;100163.16;4998658;28;20049;-90
2023/09/01 09:38:43;;;;;;;0.52;0.35;;;;;;;25.31;72.19;100165.63;5030072;28;20040;-90
2023/09/01 09:41:08;;;;;;;0.45;0.43;;;;;;;25.09;72.75;100152.47;5004610;28;20539;-90
2023/09/01 09:43:48;;;;;;;0.40;0.40;;;;;;;25.40;73.56;100156.69;5002769;28;20041;-89
2023/09/01 09:46:14;;;;;;;0.52;0.40;;;;;;;25.46;70.90;100163.09;5030255;28;20052;-90
2023/09/01 09:48:40;;;;;;;0.68;0.68;;;;;;;25.38;72.22;100153.66;5011922;28;20055;-92
2023/09/01 09:51:10;;;;;;;0.25;0.25;;;;;;;25.43;72.73;100159.25;5001252;28;20045;-92
2023/09/01 09:53:39;;;;;;;0.20;0.20;;;;;;;25.69;69.91;100155.81;4999143;28;20565;-91
2023/09/01 09:56:33;;;;;;;0.30;0.30;;;;;;;25.64;67.49;100165.16;4989912;28;20428;-90
2023/09/01 09:59:05;;;;;;;0.25;0.25;;;;;;;26.13;69.77;100153.56;5005034;28;20077;-89
2023/09/01 10:01:35;;;;;;;0.77;0.47;;;;;;;26.53;66.29;100148.75;5004737;28;20045;-89
2023/09/01 10:04:07;;;;;;;0.10;0.10;;;;;;;26.87;61.31;100158.97;5005258;28;20461;-89
2023/09/01 10:06:36;;;;;;;0.47;0.47;;;;;;;26.92;59.97;100148.03;5014810;28;20056;-90
2023/09/01 10:09:04;;;;;;;0.60;0.47;;;;;;;26.56;59.84;100162.66;5010032;28;20033;-91
2023/09/01 10:11:30;;;;;;;0.50;0.50;;;;;;;26.79;63.84;100157.28;4990411;28;20041;-90
2023/09/01 10:13:56;;;;;;;1.00;0.60;;;;;;;27.19;59.11;100156.00;4994161;28;20083;-89
2023/09/01 10:16:23;;;;;;;0.30;0.30;;;;;;;27.12;56.27;100155.88;4987328;28;20135;-89
2023/09/01 10:18:49;;;;;;;0.20;0.20;;;;;;;27.02;59.28;100160.50;5028374;28;20037;-89
2023/09/01 10:21:18;;;;;;;0.20;0.20;;;;;;;26.45;61.61;100151.47;4989109;28;20390;-89
2023/09/01 10:23:44;;;;;;;0.50;0.50;;;;;;;26.41;63.86;100159.56;4993890;28;20493;-90
2023/09/01 10:26:17;;;;;;;0.60;0.60;;;;;;;26.48;64.01;100150.41;5012839;28;20112;-89
2023/09/01 10:28:57;;;;;;;1.67;0.40;;;;;;;26.83;62.91;100149.97;5001454;28;20408;-89
2023/09/01 10:31:23;;;;;;;0.52;0.28;;;;;;;27.08;59.83;100138.38;4991797;28;20060;-89
2023/09/01 10:34:14;;;;;;;0.60;0.60;;;;;;;27.60;57.32;100137.50;4996103;28;20493;-90
2023/09/01 10:36:45;;;;;;;0.10;0.10;;;;;;;27.05;58.39;100133.78;4986649;28;20795;-90
2023/09/01 10:39:18;;;;;;;0.43;0.30;;;;;;;26.96;60.94;100137.06;5012976;28;20449;-89
2023/09/01 10:41:45;;;;;;;0.17;0.17;;;;;;;27.15;60.73;100135.63;5028713;28;20111;-89
2023/09/01 10:44:10;;;;;;;0.50;0.50;;;;;;;27.45;60.91;100137.31;5017826;28;20113;-90
2023/09/01 10:46:36;;;;;;;10.98;1.95;;;;;;;27.79;59.56;100130.31;4998262;28;20045;-89
2023/09/01 10:49:04;;;;;;;0.45;0.30;;;;;;;27.92;53.50;100142.97;4996080;28;20041;-89
2023/09/01 10:51:31;;;;;;;0.52;0.52;;;;;;;27.63;56.43;100142.09;5011905;28;20513;-90
2023/09/01 10:53:59;;;;;;;0.28;0.28;;;;;;;27.82;56.26;100137.72;5002596;28;20045;-90
2023/09/01 10:56:26;;;;;;;0.32;0.30;;;;;;;27.89;55.64;100141.22;5027743;28;20033;-90
2023/09/01 10:58:55;;;;;;;0.30;0.30;;;;;;;27.52;57.10;100133.81;5013195;28;20064;-89
2023/09/01 11:01:31;;;;;;;0.28;0.25;;;;;;;27.37;59.96;100142.94;5009351;28;20041;-90
2023/09/01 11:04:21;;;;;;;0.30;0.30;;;;;;;27.54;55.44;100134.78;5013601;28;20049;-90
2023/09/01 11:06:56;;;;;;;0.32;0.32;;;;;;;27.62;54.04;100141.31;5032170;28;20051;-91
2023/09/01 11:09:42;;;;;;;1.08;0.93;;;;;;;27.30;55.72;100137.88;5017180;28;20052;-89
2023/09/01 11:12:10;;;;;;;0.80;0.68;;;;;;;27.16;56.70;100139.25;4929938;28;20051;-89
2023/09/01 11:14:37;;;;;;;0.20;0.20;;;;;;;26.89;58.97;100122.19;5019209;28;20049;-89
2023/09/01 11:17:03;;;;;;;0.22;0.22;;;;;;;27.16;59.21;100134.31;5031923;28;20041;-90
2023/09/01 11:19:32;;;;;;;0.50;0.50;;;;;;;27.03;58.04;100125.03;5013342;28;20423;-90
2023/09/01 11:22:01;;;;;;;0.60;0.60;;;;;;;26.90;57.99;100106.63;5014478;28;20056;-91
2023/09/01 11:24:26;;;;;;;0.40;0.40;;;;;;;26.89;59.83;100122.19;5009602;28;20037;-88
2023/09/01 11:26:52;;;;;;;0.17;0.17;;;;;;;27.07;58.98;100114.06;4998692;28;20059;-89
2023/09/01 11:29:21;;;;;;;0.25;0.20;;;;;;;27.49;58.82;100101.50;5046016;28;20025;-89
2023/09/01 11:31:47;;;;;;;0.60;0.50;;;;;;;27.93;55.69;100108.22;5033045;28;20095;-89